Time;durP1;ratioP1;P1;durP2;ratioP2;P2;SDS_P1;SDS_P2;PMS_P1;PMS_P2;Temp;Humidity;BMP_temperature;BMP_pressure;BME280_temperature;BME280_humidity;BME280_pressure;Samples;Min_cycle;Max_cycle;Signal;HPM_P1;HPM_P2
2021/10/22 00:00:53;;;;;;;9.25;1.70;;;;;;;15.35;45.85;101377.44;4976499;28;20450;-60
2021/10/22 00:03:19;;;;;;;5.35;1.67;;;;;;;15.35;46.29;101388.22;4976208;28;20045;-60
2021/10/22 00:05:44;;;;;;;6.55;2.03;;;;;;;15.32;46.69;101386.69;4975807;28;20114;-60
2021/10/22 00:08:09;;;;;;;5.35;1.60;;;;;;;15.28;45.56;101382.56;4958610;28;20031;-61
2021/10/22 00:10:35;;;;;;;9.05;2.38;;;;;;;15.23;46.79;101387.53;4959041;28;20399;-60
2021/10/22 00:13:00;;;;;;;9.80;2.38;;;;;;;15.17;46.32;101393.53;4976305;28;20030;-60
2021/10/22 00:15:26;;;;;;;8.13;2.53;;;;;;;15.13;47.11;101394.81;4958547;28;20442;-60
2021/10/22 00:17:51;;;;;;;13.80;2.03;;;;;;;15.12;46.67;101390.41;4958649;28;20122;-60
2021/10/22 00:20:17;;;;;;;8.95;2.10;;;;;;;15.12;45.47;101395.81;4958733;28;20054;-59
2021/10/22 00:22:42;;;;;;;6.88;2.58;;;;;;;15.11;47.11;101403.03;4958368;28;20030;-60
2021/10/22 00:25:08;;;;;;;9.55;1.60;;;;;;;15.10;46.95;101395.09;4975618;28;20045;-60
2021/10/22 00:27:33;;;;;;;12.93;2.75;;;;;;;15.08;46.11;101397.94;4975910;28;20062;-60
2021/10/22 00:29:59;;;;;;;5.88;1.60;;;;;;;15.07;45.80;101392.69;4975602;28;20031;-60
2021/10/22 00:32:24;;;;;;;8.05;2.08;;;;;;;15.05;45.91;101392.81;4958296;28;20033;-60
2021/10/22 00:34:50;;;;;;;6.10;2.53;;;;;;;15.04;47.07;101396.53;4975705;28;20484;-60
2021/10/22 00:37:15;;;;;;;10.73;2.38;;;;;;;15.00;46.00;101383.47;4958721;28;20041;-60
2021/10/22 00:39:41;;;;;;;9.23;1.75;;;;;;;15.01;47.13;101391.44;4958547;28;20023;-60
2021/10/22 00:42:07;;;;;;;4.40;1.65;;;;;;;15.00;47.06;101399.66;4975620;28;20055;-60
2021/10/22 00:44:33;;;;;;;7.88;3.08;;;;;;;14.96;46.00;101398.25;4975579;28;20027;-60
2021/10/22 00:46:58;;;;;;;9.70;2.25;;;;;;;14.91;46.97;101390.56;4975305;28;20368;-60
2021/10/22 00:49:24;;;;;;;7.88;1.73;;;;;;;14.92;46.68;101386.03;4975492;28;20475;-60
2021/10/22 00:51:50;;;;;;;4.63;1.88;;;;;;;14.88;45.55;101395.41;4958098;28;20030;-60
2021/10/22 00:54:16;;;;;;;10.88;2.03;;;;;;;14.84;46.69;101388.59;4975244;28;20069;-60
2021/10/22 00:56:41;;;;;;;10.63;2.13;;;;;;;14.83;47.07;101394.97;4975379;28;20448;-60
2021/10/22 00:59:07;;;;;;;9.50;1.85;;;;;;;14.79;45.67;101380.09;4958161;28;20031;-60
2021/10/22 01:01:42;;;;;;;8.07;1.73;;;;;;;14.78;46.36;101387.31;4958139;28;20037;-60
2021/10/22 01:04:08;;;;;;;8.30;2.30;;;;;;;14.79;45.75;101385.47;4975324;28;20539;-60
2021/10/22 01:06:38;;;;;;;9.48;1.65;;;;;;;14.76;45.82;101386.63;4975322;28;20037;-60
2021/10/22 01:09:06;;;;;;;10.35;1.33;;;;;;;14.73;46.68;101388.75;4957653;28;20031;-60
2021/10/22 01:11:32;;;;;;;4.82;1.35;;;;;;;14.71;46.25;101393.44;4941638;28;20435;-60
2021/10/22 01:14:00;;;;;;;7.43;2.20;;;;;;;14.67;45.62;101383.91;4957658;28;20373;-60
2021/10/22 01:16:25;;;;;;;10.38;2.20;;;;;;;14.64;47.07;101382.34;4957229;28;20033;-60
2021/10/22 01:18:51;;;;;;;9.95;1.55;;;;;;;14.67;46.10;101386.59;4941772;28;20397;-60
2021/10/22 01:21:16;;;;;;;3.13;1.38;;;;;;;14.63;46.24;101391.41;4975139;28;20479;-60
2021/10/22 01:23:41;;;;;;;7.90;1.98;;;;;;;14.61;46.27;101381.78;4957604;28;20058;-60
2021/10/22 01:26:07;;;;;;;10.20;2.97;;;;;;;14.55;45.74;101381.34;4957937;28;20391;-60
2021/10/22 01:28:32;;;;;;;6.88;1.50;;;;;;;14.58;47.02;101391.84;4974814;28;20027;-60
2021/10/22 01:30:58;;;;;;;8.38;1.70;;;;;;;14.57;46.58;101392.00;4974914;28;20101;-60
2021/10/22 01:33:23;;;;;;;8.65;2.47;;;;;;;14.55;46.74;101388.56;4974821;28;20033;-60
2021/10/22 01:35:50;;;;;;;9.38;1.50;;;;;;;14.53;47.21;101383.34;4975075;28;20092;-60
2021/10/22 01:38:20;;;;;;;6.38;1.55;;;;;;;14.52;45.59;101388.84;4957590;28;20081;-60
2021/10/22 01:40:46;;;;;;;6.43;1.98;;;;;;;14.51;47.10;101387.19;4974433;28;20038;-60
2021/10/22 01:43:11;;;;;;;6.88;1.85;;;;;;;14.49;47.21;101381.91;4974676;28;20038;-60
2021/10/22 01:45:37;;;;;;;7.57;1.45;;;;;;;14.49;46.56;101379.22;4974713;28;20030;-60
2021/10/22 01:48:03;;;;;;;6.80;1.15;;;;;;;14.48;46.83;101382.91;4957274;28;20054;-60
2021/10/22 01:50:29;;;;;;;8.60;1.40;;;;;;;14.46;47.06;101379.50;4974713;28;20114;-60
2021/10/22 01:52:54;;;;;;;8.68;1.83;;;;;;;14.46;46.07;101382.19;4974723;28;20042;-60
2021/10/22 01:55:20;;;;;;;10.57;1.55;;;;;;;14.41;46.23;101365.59;4974631;28;20476;-60
2021/10/22 01:57:45;;;;;;;7.93;1.73;;;;;;;14.36;47.20;101362.47;4974586;28;20419;-60
2021/10/22 02:00:11;;;;;;;9.57;1.75;;;;;;;14.41;46.02;101370.13;4941171;28;20058;-60
2021/10/22 02:02:36;;;;;;;7.60;1.80;;;;;;;14.39;46.08;101364.88;4974615;28;20166;-60
2021/10/22 02:05:02;;;;;;;8.85;1.88;;;;;;;14.34;47.15;101364.47;4974393;28;20031;-60
2021/10/22 02:07:28;;;;;;;8.73;1.95;;;;;;;14.38;46.63;101365.00;4974676;28;20027;-60
2021/10/22 02:09:53;;;;;;;8.75;2.13;;;;;;;14.31;46.41;101347.69;4974551;28;20121;-60
2021/10/22 02:12:19;;;;;;;9.48;1.45;;;;;;;14.37;46.64;101364.19;4974298;28;20388;-60
2021/10/22 02:14:44;;;;;;;11.30;2.03;;;;;;;14.36;46.96;101362.47;4941067;28;20031;-60
2021/10/22 02:17:09;;;;;;;8.20;1.83;;;;;;;14.35;47.16;101360.75;4974442;28;20035;-61
2021/10/22 02:19:35;;;;;;;8.95;1.38;;;;;;;14.34;46.54;101359.06;4974319;28;20035;-60
2021/10/22 02:22:00;;;;;;;6.47;1.20;;;;;;;14.34;46.87;101363.59;4974110;28;20031;-60
2021/10/22 02:24:25;;;;;;;10.98;1.60;;;;;;;14.32;45.93;101366.44;4956926;28;20109;-60
2021/10/22 02:26:51;;;;;;;13.77;2.00;;;;;;;14.28;46.37;101365.00;4974119;28;20034;-60
2021/10/22 02:29:16;;;;;;;8.30;1.67;;;;;;;14.27;46.81;101367.81;4959759;28;20036;-60
2021/10/22 02:31:42;;;;;;;5.20;1.50;;;;;;;14.25;45.88;101365.25;4977838;28;20031;-61
2021/10/22 02:34:07;;;;;;;10.00;2.05;;;;;;;14.25;45.61;101364.41;4960384;28;20082;-60
2021/10/22 02:36:32;;;;;;;10.65;2.03;;;;;;;14.23;46.56;101367.25;4977670;28;20451;-60
2021/10/22 02:38:58;;;;;;;6.32;1.63;;;;;;;14.22;46.75;101364.69;4977706;28;20027;-60
2021/10/22 02:41:23;;;;;;;9.60;1.50;;;;;;;14.18;47.00;101356.00;4977463;28;20063;-60
2021/10/22 02:43:48;;;;;;;4.97;1.50;;;;;;;14.17;45.46;101365.13;4960433;28;20030;-60
2021/10/22 02:46:15;;;;;;;7.78;1.20;;;;;;;14.20;46.04;101367.53;4977747;28;20038;-60
2021/10/22 02:48:40;;;;;;;8.60;1.42;;;;;;;14.20;45.80;101367.53;4977630;28;20026;-60
2021/10/22 02:51:06;;;;;;;8.45;1.70;;;;;;;14.19;46.37;101360.44;4960262;28;20538;-60
2021/10/22 02:53:31;;;;;;;19.77;2.33;;;;;;;14.17;45.80;101356.16;4977481;28;20055;-60
2021/10/22 02:55:56;;;;;;;8.07;1.80;;;;;;;14.13;45.82;101354.72;4977418;28;20469;-60
2021/10/22 02:58:22;;;;;;;6.30;1.40;;;;;;;14.17;45.71;101365.13;4943999;28;20035;-60
2021/10/22 03:00:48;;;;;;;9.35;1.63;;;;;;;14.18;45.67;101366.78;4960305;28;20130;-60
2021/10/22 03:03:13;;;;;;;10.02;1.80;;;;;;;14.18;45.71;101369.50;4977266;28;20062;-60
2021/10/22 03:05:39;;;;;;;7.38;1.92;;;;;;;14.19;46.05;101371.19;4977185;28;20130;-60
2021/10/22 03:08:04;;;;;;;7.07;1.90;;;;;;;14.19;45.72;101368.50;4977304;28;20023;-60
2021/10/22 03:10:30;;;;;;;6.97;1.30;;;;;;;14.19;46.12;101371.19;4977437;28;20030;-60
2021/10/22 03:12:55;;;;;;;9.48;2.53;;;;;;;14.19;46.10;101378.44;4959776;28;20471;-60
2021/10/22 03:15:20;;;;;;;8.00;1.70;;;;;;;14.17;46.78;101367.81;4977043;28;20061;-60
2021/10/22 03:17:46;;;;;;;2.03;1.08;;;;;;;14.19;46.51;101370.34;4976927;28;20035;-60
2021/10/22 03:20:11;;;;;;;4.05;1.65;;;;;;;14.17;46.52;101370.50;4976897;28;20031;-60
2021/10/22 03:22:38;;;;;;;4.63;1.85;;;;;;;14.18;45.47;101368.66;4976842;28;20026;-60
2021/10/22 03:25:04;;;;;;;8.65;1.35;;;;;;;14.17;45.61;101378.59;4976767;28;20037;-60
2021/10/22 03:27:30;;;;;;;4.45;1.67;;;;;;;14.17;47.10;101378.59;4959536;28;20114;-60
2021/10/22 03:29:55;;;;;;;5.95;1.65;;;;;;;14.14;45.89;101360.00;4977209;28;20070;-60
2021/10/22 03:32:21;;;;;;;4.63;1.45;;;;;;;14.13;45.84;101358.28;4977752;28;20030;-60
2021/10/22 03:34:46;;;;;;;5.63;1.23;;;;;;;14.10;45.42;101365.81;4960269;28;20483;-60
2021/10/22 03:37:13;;;;;;;6.68;1.50;;;;;;;14.07;45.43;101361.53;4978743;28;20030;-60
2021/10/22 03:39:38;;;;;;;3.53;1.77;;;;;;;14.07;46.01;101361.53;4959951;28;20030;-59
2021/10/22 03:42:04;;;;;;;4.90;1.40;;;;;;;14.06;45.66;101353.59;4977737;28;20062;-60
2021/10/22 03:44:30;;;;;;;3.13;1.58;;;;;;;14.05;46.95;101363.50;4960212;28;20026;-60
2021/10/22 03:46:55;;;;;;;8.88;1.60;;;;;;;14.03;46.71;101357.44;4977586;28;20027;-60
2021/10/22 03:49:24;;;;;;;5.30;1.52;;;;;;;14.02;46.87;101355.72;4978084;28;20391;-60
2021/10/22 03:51:53;;;;;;;9.73;1.33;;;;;;;14.00;45.69;101355.00;4960344;28;20031;-59
2021/10/22 03:54:19;;;;;;;7.50;1.77;;;;;;;13.99;45.86;101359.53;4977463;28;20113;-59
2021/10/22 03:56:45;;;;;;;11.75;1.77;;;;;;;13.95;46.63;101349.19;4978064;28;20069;-59
2021/10/22 03:59:18;;;;;;;8.18;1.42;;;;;;;13.95;45.85;101355.44;4944517;28;20030;-60
2021/10/22 04:01:46;;;;;;;10.80;1.38;;;;;;;13.97;46.07;101363.34;4960877;28;20058;-59
2021/10/22 04:04:12;;;;;;;6.35;1.48;;;;;;;13.97;45.80;101366.06;4977443;28;20081;-59
2021/10/22 04:06:38;;;;;;;7.75;1.27;;;;;;;13.99;46.85;101358.69;4977398;28;20542;-60
2021/10/22 04:09:04;;;;;;;13.40;1.38;;;;;;;14.00;46.87;101355.00;4977636;28;20050;-59
2021/10/22 04:11:32;;;;;;;3.08;1.10;;;;;;;13.98;45.93;101348.91;4960378;28;20476;-60
2021/10/22 04:14:01;;;;;;;7.38;1.58;;;;;;;14.00;46.08;101355.00;4961535;28;20368;-59
2021/10/22 04:16:26;;;;;;;5.97;1.65;;;;;;;14.00;45.90;101363.09;4977408;28;20034;-59
2021/10/22 04:18:51;;;;;;;2.45;1.08;;;;;;;13.99;46.35;101350.59;4960137;28;20034;-59
2021/10/22 04:21:17;;;;;;;5.47;1.63;;;;;;;13.99;46.43;101353.28;4977324;28;20027;-60
2021/10/22 04:23:42;;;;;;;14.15;1.98;;;;;;;13.98;46.77;101359.69;4959663;28;20424;-59
2021/10/22 04:26:08;;;;;;;8.93;1.75;;;;;;;13.97;45.40;101355.28;4976341;28;20039;-60
2021/10/22 04:28:34;;;;;;;9.15;1.40;;;;;;;13.93;46.86;101353.88;4942337;28;20488;-60
2021/10/22 04:30:59;;;;;;;8.88;2.75;;;;;;;13.95;45.67;101346.50;4975734;28;20035;-60
2021/10/22 04:33:25;;;;;;;5.03;1.50;;;;;;;13.95;45.73;101351.88;4943095;28;20034;-60
2021/10/22 04:36:02;;;;;;;6.70;1.80;;;;;;;13.90;45.63;101349.56;4962291;28;20038;-60
2021/10/22 04:41:13;;;;;;;11.75;1.63;;;;;;;13.88;46.32;101356.97;4961267;28;20108;-59
2021/10/22 04:43:39;;;;;;;2.05;1.17;;;;;;;13.87;46.60;101349.03;4958322;28;20441;-59
2021/10/22 04:46:04;;;;;;;5.50;1.50;;;;;;;13.93;45.71;101364.63;4958035;28;20062;-59
2021/10/22 04:48:29;;;;;;;3.38;0.90;;;;;;;13.91;45.65;101362.06;4975640;28;20124;-59
2021/10/22 04:50:55;;;;;;;5.95;1.10;;;;;;;13.92;45.56;101371.00;4957820;28;20034;-59
2021/10/22 04:53:27;;;;;;;4.18;1.02;;;;;;;13.91;46.23;101378.22;4974976;28;20027;-59
2021/10/22 04:55:54;;;;;;;9.80;2.25;;;;;;;13.90;46.77;101378.38;4975137;28;20387;-59
2021/10/22 04:58:19;;;;;;;9.57;1.42;;;;;;;13.84;46.68;101371.69;4957697;28;20038;-59
2021/10/22 05:00:44;;;;;;;8.57;1.60;;;;;;;13.90;46.19;101381.06;4975161;28;20028;-59
2021/10/22 05:03:10;;;;;;;7.13;1.50;;;;;;;13.91;45.96;101377.38;4974938;28;20023;-59
2021/10/22 05:05:36;;;;;;;4.63;1.20;;;;;;;13.88;45.34;101377.63;4975019;28;20023;-59
2021/10/22 05:08:01;;;;;;;7.25;1.63;;;;;;;13.91;45.57;101383.63;4957899;28;20031;-59
2021/10/22 05:10:26;;;;;;;6.03;0.98;;;;;;;13.93;46.26;101387.00;4974947;28;20114;-59
2021/10/22 05:12:52;;;;;;;4.63;0.93;;;;;;;13.95;46.03;101385.06;4957591;28;20475;-59
2021/10/22 05:15:17;;;;;;;7.75;1.02;;;;;;;13.95;46.31;101392.28;4974972;28;20035;-59
2021/10/22 05:17:43;;;;;;;5.57;1.30;;;;;;;13.96;45.64;101396.66;4957402;28;20034;-59
2021/10/22 05:20:09;;;;;;;7.13;1.25;;;;;;;13.97;45.22;101392.97;4975054;28;20054;-59
2021/10/22 05:22:35;;;;;;;8.48;1.55;;;;;;;13.98;46.29;101403.63;4975093;28;20076;-59
2021/10/22 05:25:01;;;;;;;9.80;1.25;;;;;;;13.99;45.73;101396.38;4974781;28;20035;-59
2021/10/22 05:27:26;;;;;;;6.07;0.98;;;;;;;13.99;46.27;101399.09;4957381;28;20502;-59
2021/10/22 05:29:52;;;;;;;3.25;1.48;;;;;;;13.99;46.53;101396.38;4974751;28;20102;-59
2021/10/22 05:32:17;;;;;;;4.63;1.02;;;;;;;13.99;45.28;101407.16;4974807;28;20041;-59
2021/10/22 05:34:43;;;;;;;6.25;1.02;;;;;;;13.98;44.95;101406.34;4974738;28;20550;-59
2021/10/22 05:37:08;;;;;;;5.32;1.15;;;;;;;13.92;45.31;101395.25;4974693;28;20031;-59
2021/10/22 05:39:33;;;;;;;4.32;1.30;;;;;;;13.95;45.12;101408.44;4957253;28;20042;-59
2021/10/22 05:41:59;;;;;;;6.72;0.90;;;;;;;13.95;46.66;101403.06;4974548;28;20054;-59
2021/10/22 05:44:24;;;;;;;8.68;1.10;;;;;;;13.88;46.45;101393.81;4957309;28;20046;-59
2021/10/22 05:46:52;;;;;;;3.13;1.00;;;;;;;13.93;45.35;101407.72;4974810;28;20022;-59
2021/10/22 05:49:19;;;;;;;2.03;1.00;;;;;;;13.92;46.31;101406.88;4958088;28;20050;-59
2021/10/22 05:51:45;;;;;;;7.25;1.67;;;;;;;13.93;46.15;101413.13;4974815;28;20114;-59
2021/10/22 05:54:10;;;;;;;3.05;0.90;;;;;;;13.94;46.30;101414.81;4974701;28;20119;-59
2021/10/22 05:56:35;;;;;;;6.63;1.27;;;;;;;13.95;45.51;101405.75;4957379;28;20031;-59
2021/10/22 05:59:01;;;;;;;3.15;0.75;;;;;;;13.93;46.04;101402.34;4974528;28;20456;-59
2021/10/22 06:01:26;;;;;;;6.07;1.15;;;;;;;13.94;46.04;101404.88;4974575;28;20039;-59
2021/10/22 06:03:51;;;;;;;8.32;1.42;;;;;;;13.93;45.14;101394.28;4977070;28;20037;-59
2021/10/22 06:06:17;;;;;;;6.50;1.10;;;;;;;13.94;45.17;101395.94;4978526;28;20030;-59
2021/10/22 06:08:43;;;;;;;5.43;1.15;;;;;;;13.95;45.42;101403.06;4945531;28;20026;-59
2021/10/22 06:11:12;;;;;;;6.82;1.40;;;;;;;13.91;46.22;101399.78;4961566;28;20027;-59
2021/10/22 06:13:38;;;;;;;6.75;1.98;;;;;;;13.92;46.30;101397.94;4979696;28;20033;-59
2021/10/22 06:16:06;;;;;;;4.47;1.30;;;;;;;13.94;45.45;101393.25;4930948;28;20039;-61
2021/10/22 06:18:44;;;;;;;2.67;1.50;;;;;;;13.96;46.23;101388.56;4983732;28;20038;-59
2021/10/22 06:21:36;;;;;;;2.35;1.13;;;;;;;13.94;45.03;101372.56;4980420;28;20523;-60
2021/10/22 06:24:11;;;;;;;4.28;1.52;;;;;;;13.93;44.94;101368.16;4965648;28;20027;-59
2021/10/22 06:26:42;;;;;;;7.68;1.48;;;;;;;13.87;46.15;101366.00;4944973;28;20129;-59
2021/10/22 06:29:10;;;;;;;5.65;1.08;;;;;;;13.89;45.93;101368.59;4961691;28;20493;-59
2021/10/22 06:31:41;;;;;;;8.05;1.58;;;;;;;13.91;45.59;101361.22;4961663;28;20031;-59
2021/10/22 06:34:08;;;;;;;3.35;1.13;;;;;;;13.92;45.84;101365.63;4978050;28;20022;-59
2021/10/22 06:36:34;;;;;;;8.65;1.25;;;;;;;13.95;44.83;101362.66;4960649;28;20029;-59
2021/10/22 06:39:00;;;;;;;6.57;1.30;;;;;;;13.99;45.33;101369.44;4977951;28;20387;-59
2021/10/22 06:41:25;;;;;;;5.63;1.00;;;;;;;14.03;45.27;101357.44;4977771;28;20030;-59
2021/10/22 06:43:51;;;;;;;6.05;1.20;;;;;;;14.14;45.63;101354.59;4977709;28;20400;-59
2021/10/22 06:46:16;;;;;;;6.82;0.93;;;;;;;14.23;45.82;101361.88;4960362;28;20395;-59
2021/10/22 06:48:42;;;;;;;2.20;0.88;;;;;;;14.27;44.56;101362.41;4977755;28;20151;-59
2021/10/22 06:51:09;;;;;;;5.68;1.38;;;;;;;14.39;44.31;101358.63;4977492;28;20023;-59
2021/10/22 06:53:36;;;;;;;2.70;1.05;;;;;;;14.46;45.23;101357.94;4977416;28;20027;-59
2021/10/22 06:56:02;;;;;;;7.57;1.33;;;;;;;14.54;45.80;101365.31;4977285;28;20066;-59
2021/10/22 06:58:27;;;;;;;4.20;1.65;;;;;;;14.67;45.03;101376.69;4977492;28;20063;-59
2021/10/22 07:00:52;;;;;;;3.80;0.90;;;;;;;14.78;45.71;101372.97;4960210;28;20065;-59
2021/10/22 07:03:20;;;;;;;6.85;1.15;;;;;;;14.86;45.43;101373.09;4977137;28;20026;-59
2021/10/22 07:06:03;;;;;;;5.03;1.40;;;;;;;14.97;44.56;101364.84;4977316;28;20045;-59
2021/10/22 07:08:28;;;;;;;5.93;0.88;;;;;;;15.06;44.17;101377.50;4962249;28;20019;-59
2021/10/22 07:10:53;;;;;;;4.63;1.35;;;;;;;15.04;45.42;101356.06;4976993;28;20034;-59
2021/10/22 07:13:20;;;;;;;7.57;1.10;;;;;;;15.23;45.24;101375.88;4977346;28;20030;-59
2021/10/22 07:15:46;;;;;;;6.25;1.00;;;;;;;15.33;45.25;101368.59;4976238;28;20035;-59
2021/10/22 07:18:12;;;;;;;5.35;1.20;;;;;;;15.48;44.07;101368.03;4976950;28;20023;-59
2021/10/22 07:20:37;;;;;;;4.20;0.60;;;;;;;15.62;44.95;101375.66;4976838;28;20030;-60
2021/10/22 07:25:31;;;;;;;2.63;1.23;;;;;;;15.82;44.07;101381.84;4976710;28;20503;-60
2021/10/22 07:27:57;;;;;;;3.72;1.88;;;;;;;15.77;43.53;101372.47;4959814;28;20023;-59
2021/10/22 07:30:22;;;;;;;6.90;0.93;;;;;;;15.90;44.02;101378.38;4976668;28;20034;-59
2021/10/22 07:32:48;;;;;;;3.53;1.13;;;;;;;16.00;44.03;101381.88;4976563;28;20027;-59
2021/10/22 07:35:14;;;;;;;4.68;1.10;;;;;;;16.01;44.20;101381.72;4976636;28;20109;-59
2021/10/22 07:37:40;;;;;;;2.50;0.77;;;;;;;16.01;43.66;101386.28;4976714;28;20526;-59
2021/10/22 07:40:06;;;;;;;5.40;1.30;;;;;;;16.03;44.31;101384.28;4976886;28;20035;-60
2021/10/22 07:42:33;;;;;;;4.13;0.95;;;;;;;16.01;44.65;101381.72;4967040;28;20139;-60
2021/10/22 07:45:00;;;;;;;3.30;0.80;;;;;;;16.04;44.91;101372.47;4975307;28;20507;-59
2021/10/22 07:47:31;;;;;;;2.00;0.88;;;;;;;16.15;44.28;101388.47;4975231;28;20043;-60
2021/10/22 07:49:56;;;;;;;6.80;0.65;;;;;;;16.28;43.19;101386.25;4976324;28;20041;-60
2021/10/22 07:52:24;;;;;;;2.75;0.57;;;;;;;16.28;43.79;101388.94;4976285;28;20034;-59
2021/10/22 07:54:53;;;;;;;3.92;0.63;;;;;;;16.37;44.35;101388.03;4976512;28;20043;-59
2021/10/22 07:57:19;;;;;;;7.55;1.30;;;;;;;16.58;44.16;101387.78;4974912;28;20538;-59
2021/10/22 07:59:45;;;;;;;3.50;1.17;;;;;;;16.78;43.78;101403.69;4976106;28;20027;-59
2021/10/22 08:02:11;;;;;;;3.58;0.60;;;;;;;16.98;43.36;101400.81;4975274;28;20034;-60
2021/10/22 08:04:37;;;;;;;9.02;1.23;;;;;;;17.24;44.15;101390.88;4974865;28;20038;-59
2021/10/22 08:07:02;;;;;;;7.40;1.20;;;;;;;17.53;42.43;101394.16;4976088;28;20419;-60
2021/10/22 08:09:28;;;;;;;5.22;0.98;;;;;;;17.67;42.58;101400.84;4974870;28;20026;-60
2021/10/22 08:11:53;;;;;;;6.72;1.42;;;;;;;17.97;42.50;101403.03;4976159;28;20022;-60
2021/10/22 08:14:20;;;;;;;3.55;1.92;;;;;;;17.99;42.50;101401.84;4975942;28;20046;-60
2021/10/22 08:16:45;;;;;;;1.75;0.52;;;;;;;17.95;42.75;101410.50;4975835;28;20038;-60
2021/10/22 08:19:11;;;;;;;3.45;0.70;;;;;;;17.83;42.16;101407.22;4975717;28;20031;-60
2021/10/22 08:24:05;;;;;;;8.15;1.33;;;;;;;17.74;43.54;101427.13;4975813;28;20395;-60
2021/10/22 08:31:42;;;;;;;4.43;1.10;;;;;;;17.36;43.22;101422.94;5663004;23;20274;-58
2021/10/22 08:34:07;;;;;;;3.42;0.93;;;;;;;17.32;43.56;101440.53;5439731;23;20890;-61
2021/10/22 08:36:32;;;;;;;4.78;0.65;;;;;;;17.42;42.96;101445.84;4974965;28;20518;-60
2021/10/22 08:38:58;;;;;;;6.57;1.08;;;;;;;17.79;42.30;101442.91;4976003;28;20390;-59
2021/10/22 08:41:23;;;;;;;8.57;1.70;;;;;;;18.09;42.72;101452.41;4975975;28;20066;-59
2021/10/22 08:43:53;;;;;;;10.18;3.22;;;;;;;17.83;43.66;101450.56;4975794;28;20041;-59
2021/10/22 08:46:22;;;;;;;7.22;2.53;;;;;;;17.70;43.51;101452.84;4975686;28;20114;-59
2021/10/22 08:48:47;;;;;;;2.90;1.00;;;;;;;17.63;42.99;101448.22;4959000;28;20034;-59
2021/10/22 08:51:18;;;;;;;4.53;1.88;;;;;;;17.58;43.84;101456.84;4959669;28;20117;-58
2021/10/22 08:53:44;;;;;;;4.35;1.60;;;;;;;17.60;43.26;101460.25;4995081;28;20118;-58
2021/10/22 08:56:10;;;;;;;6.10;1.33;;;;;;;17.64;42.99;101458.06;4994938;28;20387;-58
2021/10/22 08:58:35;;;;;;;4.57;1.02;;;;;;;17.75;43.07;101452.38;4995041;28;20026;-59
2021/10/22 09:01:01;;;;;;;3.80;0.95;;;;;;;18.43;41.88;101447.75;4994917;28;20038;-59
2021/10/22 09:03:35;;;;;;;5.47;0.88;;;;;;;18.83;41.37;101442.47;4994775;28;20026;-59
2021/10/22 09:06:03;;;;;;;9.23;1.17;;;;;;;18.82;41.41;101440.75;4995134;28;20497;-59
2021/10/22 09:08:38;;;;;;;5.65;1.00;;;;;;;18.86;42.33;101444.00;4995044;28;20382;-59
2021/10/22 09:11:05;;;;;;;3.88;0.90;;;;;;;18.90;41.93;101445.38;4994867;28;20034;-59
2021/10/22 09:13:33;;;;;;;9.23;1.10;;;;;;;18.84;42.54;101446.91;4994975;28;20491;-59
2021/10/22 09:16:00;;;;;;;2.33;0.85;;;;;;;18.76;42.49;101441.44;4995017;28;20030;-59
2021/10/22 09:18:31;;;;;;;2.22;0.80;;;;;;;18.66;42.67;101448.88;4994872;28;20041;-59
2021/10/22 09:20:58;;;;;;;5.05;1.35;;;;;;;18.55;42.30;101449.19;4977778;28;20616;-59
2021/10/22 09:23:25;;;;;;;5.50;1.52;;;;;;;18.41;42.71;101456.06;4994727;28;20026;-59
2021/10/22 09:25:51;;;;;;;3.35;1.05;;;;;;;18.32;42.83;101451.63;4977382;28;20088;-59
2021/10/22 09:28:24;;;;;;;6.10;1.17;;;;;;;18.22;43.11;101439.22;4994433;28;20027;-59
2021/10/22 09:30:50;;;;;;;5.22;1.05;;;;;;;18.12;43.42;101460.22;4994545;28;20081;-59
2021/10/22 09:33:18;;;;;;;7.38;1.67;;;;;;;18.10;43.02;101457.66;4977117;28;20394;-59
2021/10/22 09:35:48;;;;;;;6.95;0.73;;;;;;;18.08;42.77;101458.81;4987080;28;20049;-59
2021/10/22 09:38:15;;;;;;;6.20;1.35;;;;;;;17.98;43.36;101459.78;4996038;28;20033;-59
2021/10/22 09:40:49;;;;;;;11.60;1.42;;;;;;;18.08;43.01;101464.25;4998943;28;20474;-59
2021/10/22 09:43:17;;;;;;;5.50;1.35;;;;;;;18.15;42.39;101465.28;4997333;28;20032;-59
2021/10/22 09:45:45;;;;;;;6.63;1.27;;;;;;;18.19;42.89;101453.97;4964855;28;20018;-59
2021/10/22 09:48:29;;;;;;;5.35;1.92;;;;;;;18.18;43.16;101454.97;4996750;28;20068;-59
2021/10/22 09:51:19;;;;;;;12.60;2.00;;;;;;;18.19;42.91;101451.25;4996586;28;20360;-59
2021/10/22 09:53:45;;;;;;;6.25;1.75;;;;;;;18.24;43.12;101453.47;4959455;28;20034;-59
2021/10/22 09:56:21;;;;;;;5.07;1.20;;;;;;;18.93;41.55;101459.44;4959958;28;20035;-59
2021/10/22 09:59:03;;;;;;;5.07;1.30;;;;;;;20.31;40.04;101450.13;4959295;28;20047;-59
2021/10/22 10:01:42;;;;;;;8.27;1.98;;;;;;;21.12;39.79;101437.88;4959289;28;20419;-60
2021/10/22 10:04:09;;;;;;;7.57;1.80;;;;;;;21.08;39.75;101442.84;4959217;28;20020;-59
2021/10/22 10:06:35;;;;;;;4.88;1.33;;;;;;;21.43;39.94;101447.66;4959283;28;20035;-60
2021/10/22 10:09:04;;;;;;;4.88;1.02;;;;;;;22.13;38.54;101439.09;4941748;29;20030;-60
2021/10/22 10:11:30;;;;;;;7.50;1.60;;;;;;;22.58;38.30;101443.44;4958807;28;20089;-60
2021/10/22 10:13:56;;;;;;;6.75;1.52;;;;;;;22.79;38.59;101439.91;4958824;28;20031;-61
2021/10/22 10:16:25;;;;;;;5.57;1.45;;;;;;;23.01;37.52;101428.78;4958613;28;20030;-61
2021/10/22 10:19:11;;;;;;;4.93;1.30;;;;;;;23.22;38.39;101427.94;4958419;28;20090;-60
2021/10/22 10:21:43;;;;;;;4.72;1.77;;;;;;;23.70;37.06;101424.34;4957392;29;20065;-61
2021/10/22 10:24:10;;;;;;;6.13;1.70;;;;;;;24.29;36.51;101427.44;4968961;28;20073;-60
2021/10/22 10:26:36;;;;;;;9.15;1.73;;;;;;;24.67;36.33;101421.47;4982730;28;20385;-60
2021/10/22 10:29:07;;;;;;;5.50;1.77;;;;;;;24.95;36.27;101427.69;4996737;28;20022;-60
2021/10/22 10:31:45;;;;;;;4.30;1.10;;;;;;;24.86;36.15;101421.56;4997206;28;20057;-61
2021/10/22 10:34:40;;;;;;;6.50;1.60;;;;;;;24.83;35.94;101437.56;4997026;28;20029;-60
2021/10/22 10:37:23;;;;;;;8.07;1.17;;;;;;;25.27;35.39;101440.56;4997018;28;20360;-60
2021/10/22 10:39:49;;;;;;;2.42;1.05;;;;;;;25.42;35.62;101426.66;4996857;28;20054;-60
2021/10/22 10:42:17;;;;;;;3.35;1.13;;;;;;;25.45;35.93;101438.06;4996781;28;20030;-59
2021/10/22 10:44:47;;;;;;;3.35;1.17;;;;;;;25.26;35.76;101435.31;4996833;28;20035;-60
2021/10/22 10:47:33;;;;;;;6.38;1.00;;;;;;;25.82;34.43;101438.47;4996717;28;20628;-60
2021/10/22 10:50:03;;;;;;;4.95;0.90;;;;;;;26.21;34.12;101438.41;4996650;28;20022;-59
2021/10/22 10:52:39;;;;;;;3.97;1.30;;;;;;;26.61;33.54;101439.91;4996770;28;20026;-61
2021/10/22 10:55:29;;;;;;;4.88;1.05;;;;;;;26.64;33.72;101441.38;4996809;28;20482;-60
2021/10/22 10:58:12;;;;;;;5.25;1.45;;;;;;;26.23;34.65;101444.50;4996770;28;20562;-61
2021/10/22 11:01:03;;;;;;;2.47;0.90;;;;;;;25.56;35.28;101439.34;4979101;28;20030;-60
2021/10/22 11:03:47;;;;;;;5.07;1.73;;;;;;;24.99;35.70;101461.00;4979023;28;20522;-60
2021/10/22 11:06:44;;;;;;;3.60;0.95;;;;;;;24.48;36.21;101460.63;4962952;28;20085;-60
2021/10/22 11:09:17;;;;;;;4.68;1.20;;;;;;;24.09;36.52;101472.19;4979631;28;20073;-60
2021/10/22 11:11:42;;;;;;;7.30;0.95;;;;;;;23.93;36.13;101467.00;4978940;28;20022;-60
2021/10/22 11:14:08;;;;;;;4.18;1.00;;;;;;;23.89;36.46;101469.31;4978899;28;20093;-61
2021/10/22 11:16:45;;;;;;;4.50;1.20;;;;;;;23.62;36.22;101465.53;4996494;28;20030;-60
2021/10/22 11:19:11;;;;;;;8.05;1.08;;;;;;;23.51;35.76;101478.91;4962613;28;20073;-60
2021/10/22 11:21:39;;;;;;;9.32;1.20;;;;;;;23.16;36.23;101470.59;4996194;28;20386;-60
2021/10/22 11:24:06;;;;;;;4.15;1.20;;;;;;;22.95;36.71;101481.50;4996141;28;20061;-60
2021/10/22 11:26:32;;;;;;;4.53;1.15;;;;;;;22.81;37.12;101478.84;4978550;28;20030;-60
2021/10/22 11:29:14;;;;;;;8.07;1.38;;;;;;;22.69;36.61;101483.09;4995981;28;20022;-60
2021/10/22 11:31:47;;;;;;;3.35;0.90;;;;;;;22.43;36.18;101476.25;4996251;28;20130;-60
2021/10/22 11:34:22;;;;;;;5.55;0.80;;;;;;;22.29;37.25;101493.47;4978663;28;20117;-61
2021/10/22 11:37:09;;;;;;;5.97;1.02;;;;;;;22.09;36.57;101497.81;4978517;28;20030;-61
2021/10/22 11:39:57;;;;;;;5.47;0.75;;;;;;;21.98;37.21;101493.66;4995838;28;20034;-60